Home   Weather   Romania   Timișoara   Past weeks
Flag for Romania

Past Weather in Timișoara, Romania — Yesterday and Last 2 Weeks

Currently: 50 °F. Scattered clouds. (Weather station: Timisoara Airport, Romania). See more current weather

Past Weather in Timișoara — Graph

°F

Timișoara Temperature Yesterday

Maximum temperature yesterday: 52 °F (at 3:00 pm)
Minimum temperature yesterday: 39 °F (at 7:30 pm)
Average temperature yesterday: 43 °F

High & Low Weather Summary for the Past Weeks

 TemperatureHumidityPressure
High54 °F (Nov 23, 1:00 pm)100% (Nov 21, 5:00 pm)30.42 "Hg (Nov 21, 5:00 pm)
Low28 °F (Nov 28, 6:00 am)61% (Nov 28, 1:30 pm)29.50 "Hg (Nov 23, 1:30 am)
Average39 °F95%30.10 "Hg
* Reported Nov 21 1:00 pm — Dec 6 1:00 pm, Timișoara. Weather by CustomWeather, © 2022

Note: Actual official high and low records may vary slightly from our data, if they occured in-between our weather recording intervals... More about our weather records

Timișoara Weather History for the Previous 24 Hours

Scroll right to see more
 ConditionsComfort  
Time TempWeatherWind HumidityBarometerVisibility
1:00 pm
Tue, Dec 6
50 °FSunny.13 mph67%30.01 "Hg10 mi
12:30 pm50 °FSunny.15 mph67%30.01 "Hg10 mi
12:00 pm50 °FSunny.10 mph71%30.04 "Hg10 mi
11:30 am48 °FSunny.7 mph76%30.01 "Hg10 mi
11:00 am46 °FSunny.9 mph82%30.04 "Hg10 mi
10:30 am46 °FSunny.10 mph82%30.04 "Hg10 mi
10:00 am45 °FSunny.12 mph87%30.04 "Hg10 mi
9:30 am43 °FSunny.10 mph93%30.04 "Hg10 mi
9:00 am43 °FSunny.9 mph93%30.04 "Hg10 mi
8:30 am39 °FSunny.8 mph100%30.04 "Hg10 mi
8:00 am39 °FSunny.10 mph100%30.04 "Hg10 mi
7:30 am41 °FClear.10 mph100%30.04 "Hg10 mi
7:00 am41 °FClear.10 mph100%30.04 "Hg10 mi
6:30 am41 °FClear.12 mph100%30.07 "Hg10 mi
6:00 am41 °FClear.12 mph100%30.07 "Hg10 mi
5:30 am41 °FClear.12 mph100%30.07 "Hg10 mi
5:00 am41 °FClear.13 mph93%30.07 "Hg10 mi
4:30 am41 °FClear.10 mph93%30.07 "Hg10 mi
4:00 am39 °FClear.12 mph100%30.09 "Hg10 mi
3:30 am39 °FClear.12 mph100%30.09 "Hg10 mi
3:00 am39 °FClear.13 mph100%30.09 "Hg10 mi
1:30 am37 °FClear.9 mph100%30.12 "Hg10 mi
1:00 am37 °FClear.10 mph100%30.12 "Hg10 mi
12:30 am37 °FClear.10 mph100%30.12 "Hg10 mi
12:00 am39 °FClear.12 mph93%30.15 "Hg10 mi
11:30 pm
Mon, Dec 5
39 °FClear.12 mph100%30.15 "Hg10 mi
11:00 pm39 °FClear.13 mph100%30.15 "Hg10 mi
10:30 pm39 °FClear.10 mph100%30.15 "Hg10 mi
10:00 pm39 °FClear.9 mph100%30.15 "Hg10 mi
9:00 pm39 °FClear.8 mph100%30.18 "Hg10 mi
8:30 pm39 °FClear.8 mph100%30.18 "Hg10 mi
8:00 pm39 °FClear.8 mph100%30.18 "Hg10 mi
7:30 pm39 °FClear.7 mph100%30.18 "Hg10 mi
7:00 pm41 °FClear.6 mph100%30.18 "Hg10 mi
6:30 pm41 °FClear.2 mph100%30.18 "Hg10 mi
6:00 pm43 °FClear.5 mph100%30.18 "Hg10 mi
5:30 pm46 °FClear.7 mph87%30.18 "Hg10 mi
5:00 pm48 °FClear.5 mph87%30.18 "Hg10 mi
4:30 pm48 °FSunny.7 mph87%30.18 "Hg10 mi
4:00 pm52 °FSunny.6 mph77%30.18 "Hg10 mi
3:30 pm52 °FSunny.8 mph77%30.18 "Hg10 mi
3:00 pm52 °FSunny.7 mph82%30.18 "Hg10 mi
2:00 pm50 °FSunny.7 mph82%30.21 "Hg10 mi
Weather by CustomWeather, © 2022

See weather overview